Time;durP1;ratioP1;P1;durP2;ratioP2;P2;SDS_P1;SDS_P2;PMS_P1;PMS_P2;Temp;Humidity;BMP_temperature;BMP_pressure;BME280_temperature;BME280_humidity;BME280_pressure;Samples;Min_cycle;Max_cycle;Signal;HPM_P1;HPM_P2
2023/12/14 00:01:30;;;;;;;10.77;8.17;;;;;;;7.86;59.06;98916.94;10395100;28;20339;-70
2023/12/14 00:06:44;;;;;;;9.93;8.57;;;;;;;8.00;59.23;98901.09;10411991;28;20236;-70
2023/12/14 00:11:59;;;;;;;12.47;9.40;;;;;;;7.87;60.15;98857.34;10442598;28;20685;-71
2023/12/14 00:17:08;;;;;;;11.93;8.97;;;;;;;7.50;61.58;98858.34;10457083;28;20232;-70
2023/12/14 00:22:16;;;;;;;13.60;9.77;;;;;;;7.10;62.38;98911.03;10452918;28;20230;-70
2023/12/14 00:27:24;;;;;;;11.83;9.53;;;;;;;6.84;61.94;98964.69;10441920;28;20310;-70
2023/12/14 00:32:32;;;;;;;14.97;10.67;;;;;;;7.48;61.26;98903.78;10456966;28;20294;-70
2023/12/14 00:37:40;;;;;;;12.57;10.20;;;;;;;6.76;62.80;98925.69;10442972;28;20234;-69
2023/12/14 00:42:48;;;;;;;13.57;9.10;;;;;;;7.55;61.03;98885.22;10456670;28;20239;-70
2023/12/14 00:47:56;;;;;;;12.97;9.50;;;;;;;7.95;59.57;98904.34;10439008;28;20333;-69
2023/12/14 00:53:17;;;;;;;11.80;9.53;;;;;;;7.85;60.18;98901.19;10442872;28;20239;-70
2023/12/14 00:58:26;;;;;;;12.13;9.17;;;;;;;7.77;59.96;98957.19;10431982;28;20250;-70
2023/12/14 01:03:34;;;;;;;11.37;9.77;;;;;;;6.86;63.99;98917.44;10443945;28;20241;-70
2023/12/14 01:08:49;;;;;;;13.27;9.77;;;;;;;7.27;61.94;98959.59;10442086;28;20241;-70
2023/12/14 01:13:58;;;;;;;11.67;9.80;;;;;;;7.93;59.34;99004.94;10436518;28;20241;-70
2023/12/14 01:19:09;;;;;;;12.63;10.63;;;;;;;7.82;60.58;98960.94;10442128;28;20657;-69
2023/12/14 01:24:17;;;;;;;13.57;10.43;;;;;;;8.33;58.84;98954.75;10448625;28;20906;-70
2023/12/14 01:29:25;;;;;;;11.80;9.80;;;;;;;8.05;59.53;98995.47;10450908;28;20307;-70
2023/12/14 01:34:33;;;;;;;13.23;10.40;;;;;;;7.77;59.83;99063.72;10444328;28;20250;-72
2023/12/14 01:39:41;;;;;;;11.27;10.07;;;;;;;7.92;59.36;99073.38;10440503;28;20754;-70
2023/12/14 01:44:49;;;;;;;12.73;10.47;;;;;;;7.57;60.86;99045.59;10431026;28;20240;-71
2023/12/14 01:49:57;;;;;;;12.70;9.60;;;;;;;7.96;59.09;99089.81;10445212;28;20242;-71
2023/12/14 01:55:05;;;;;;;14.47;10.63;;;;;;;9.05;57.97;98962.78;10443224;28;20231;-71
2023/12/14 02:00:27;;;;;;;12.23;10.40;;;;;;;7.94;59.60;99054.53;10440349;28;20840;-70
2023/12/14 02:05:42;;;;;;;12.90;9.57;;;;;;;8.46;59.40;98991.41;10415864;28;20274;-70
2023/12/14 02:10:58;;;;;;;11.93;9.57;;;;;;;6.83;62.36;99157.16;10413264;28;20773;-71
2023/12/14 02:16:07;;;;;;;14.30;10.37;;;;;;;7.83;59.80;99089.59;10392664;28;20237;-71
2023/12/14 02:21:15;;;;;;;11.13;9.23;;;;;;;8.42;59.85;98988.28;10392677;28;20261;-70
2023/12/14 02:26:23;;;;;;;13.10;10.07;;;;;;;8.01;59.74;99073.28;10376328;28;20243;-70
2023/12/14 02:31:31;;;;;;;14.07;11.00;;;;;;;7.62;60.85;99103.66;10381194;28;20265;-71
2023/12/14 02:36:39;;;;;;;14.80;10.43;;;;;;;8.36;59.66;99015.69;10394618;28;20231;-71
2023/12/14 02:41:47;;;;;;;12.97;10.57;;;;;;;8.08;59.71;99076.84;10404401;28;20225;-70
2023/12/14 02:46:55;;;;;;;12.43;9.67;;;;;;;7.89;60.38;99102.22;10393208;28;20266;-69
2023/12/14 02:52:03;;;;;;;14.30;11.13;;;;;;;8.19;58.75;99134.22;10393083;28;20247;-70
2023/12/14 02:57:19;;;;;;;12.67;10.57;;;;;;;8.14;59.87;99089.44;10397632;28;20236;-71
2023/12/14 03:02:27;;;;;;;13.47;11.37;;;;;;;7.87;59.06;99194.81;10397341;28;20331;-71
2023/12/14 03:07:42;;;;;;;13.10;9.83;;;;;;;8.31;59.64;99084.75;10405392;28;20232;-69
2023/12/14 03:12:52;;;;;;;13.37;10.80;;;;;;;7.59;60.96;99127.97;10391842;28;20290;-71
2023/12/14 03:18:00;;;;;;;13.70;10.40;;;;;;;7.42;61.01;99188.53;10390749;28;20705;-71
2023/12/14 03:23:08;;;;;;;14.00;10.37;;;;;;;7.83;59.76;99197.00;10396231;28;20238;-72
2023/12/14 03:28:17;;;;;;;12.00;9.77;;;;;;;8.44;59.17;99108.91;10375356;28;20260;-71
2023/12/14 03:33:25;;;;;;;14.20;10.83;;;;;;;8.74;58.66;99087.50;10386905;28;20269;-70
2023/12/14 03:38:33;;;;;;;14.63;9.80;;;;;;;8.72;58.24;99169.53;10400003;28;20355;-71
2023/12/14 03:43:41;;;;;;;15.57;9.93;;;;;;;9.16;56.25;99178.44;10338916;28;20241;-71
2023/12/14 03:48:49;;;;;;;12.70;9.20;;;;;;;8.53;57.38;99256.28;10390694;28;20271;-71
2023/12/14 03:53:57;;;;;;;11.63;9.57;;;;;;;8.97;58.00;99146.03;10393971;28;20279;-71
2023/12/14 03:59:12;;;;;;;11.57;9.53;;;;;;;9.50;56.71;99135.03;10382913;28;20260;-70
2023/12/14 04:04:26;;;;;;;11.97;10.17;;;;;;;8.87;57.71;99212.22;10342270;28;20248;-70
2023/12/14 04:09:44;;;;;;;12.83;9.87;;;;;;;8.27;58.46;99280.72;10398104;28;20236;-71
2023/12/14 04:14:52;;;;;;;10.80;9.23;;;;;;;8.27;58.67;99272.72;10354164;28;20625;-69
2023/12/14 04:20:02;;;;;;;13.77;10.60;;;;;;;8.62;57.28;99299.69;10383311;28;20205;-70
2023/12/14 04:25:17;;;;;;;11.67;9.40;;;;;;;8.80;57.74;99248.63;10427333;28;20247;-70
2023/12/14 04:30:25;;;;;;;16.13;10.40;;;;;;;9.83;55.31;99225.31;10437801;28;20223;-69
2023/12/14 04:35:36;;;;;;;14.10;10.53;;;;;;;9.44;56.42;99242.63;10428025;28;20669;-72
2023/12/14 04:40:44;;;;;;;13.23;10.83;;;;;;;8.61;58.06;99314.88;10436597;28;21139;-71
2023/12/14 04:45:52;;;;;;;12.57;9.33;;;;;;;9.65;55.49;99256.97;10429635;28;20768;-70
2023/12/14 04:51:00;;;;;;;15.47;10.50;;;;;;;8.47;57.39;99391.19;10435905;28;20306;-69
2023/12/14 04:56:12;;;;;;;13.03;9.60;;;;;;;9.27;56.26;99300.78;10430258;28;20335;-71
2023/12/14 05:05:23;;;;;;;11.10;9.02;;;;;;;6.07;65.11;99259.34;10178265;27;8178564;-71
2023/12/14 05:10:38;;;;;;;11.57;8.93;;;;;;;6.29;64.75;99219.81;10414412;28;20223;-73
2023/12/14 05:15:47;;;;;;;13.90;10.57;;;;;;;6.51;64.53;99199.63;10458003;28;20327;-74
2023/12/14 05:20:55;;;;;;;14.27;10.50;;;;;;;6.49;63.90;99262.78;10461596;28;20703;-73
2023/12/14 05:26:03;;;;;;;16.87;12.33;;;;;;;7.03;62.79;99229.34;10426420;28;20668;-73
2023/12/14 05:31:12;;;;;;;11.67;10.00;;;;;;;7.04;63.25;99228.34;10467855;28;20235;-74
2023/12/14 05:36:21;;;;;;;12.90;9.07;;;;;;;6.87;62.16;99340.16;10462875;28;20784;-74
2023/12/14 05:41:29;;;;;;;10.40;8.80;;;;;;;7.34;61.70;99287.88;10455844;28;20253;-74
2023/12/14 05:46:38;;;;;;;11.93;9.40;;;;;;;6.83;62.53;99341.47;10461670;28;20273;-74
2023/12/14 05:51:46;;;;;;;9.97;8.77;;;;;;;7.16;61.75;99328.06;10460421;28;20242;-73
2023/12/14 05:56:55;;;;;;;10.43;8.63;;;;;;;6.86;63.27;99327.03;10421869;28;20244;-74
2023/12/14 06:02:10;;;;;;;10.67;8.63;;;;;;;6.96;62.63;99317.84;10399561;28;20252;-76
2023/12/14 06:07:24;;;;;;;14.57;10.80;;;;;;;6.87;62.51;99361.44;10378422;28;20668;-74
2023/12/14 06:12:33;;;;;;;11.97;9.53;;;;;;;6.93;61.67;99419.25;10371465;28;20229;-74
2023/12/14 06:17:42;;;;;;;9.80;8.50;;;;;;;7.92;60.32;99329.13;10353365;28;20245;-75
2023/12/14 06:22:50;;;;;;;9.40;8.07;;;;;;;7.44;61.13;99372.84;10403219;28;20236;-74
2023/12/14 06:28:01;;;;;;;9.53;8.33;;;;;;;7.89;59.98;99373.97;10420579;28;20228;-75
2023/12/14 06:33:09;;;;;;;10.33;8.07;;;;;;;7.86;60.08;99393.78;10434325;28;20314;-74
2023/12/14 06:38:17;;;;;;;11.77;9.10;;;;;;;7.45;60.68;99449.06;10436194;28;20288;-74
2023/12/14 06:43:25;;;;;;;14.20;11.33;;;;;;;7.08;62.39;99427.38;10442097;28;20227;-74
2023/12/14 06:48:33;;;;;;;9.07;7.83;;;;;;;7.38;61.42;99401.00;10427172;28;20606;-74
2023/12/14 06:53:43;;;;;;;10.63;7.90;;;;;;;6.87;62.16;99477.63;10433146;28;20232;-74
2023/12/14 06:58:51;;;;;;;10.87;8.13;;;;;;;6.13;63.87;99520.88;10420216;28;20295;-74
2023/12/14 07:03:59;;;;;;;9.57;7.50;;;;;;;5.63;65.06;99566.81;10457340;28;20797;-74
2023/12/14 07:09:07;;;;;;;8.93;7.87;;;;;;;6.67;62.88;99442.53;10476728;28;20223;-74
2023/12/14 07:14:15;;;;;;;11.37;7.50;;;;;;;6.80;62.17;99490.75;10477741;28;20623;-74
2023/12/14 07:19:26;;;;;;;10.27;7.67;;;;;;;7.04;62.11;99441.19;10513606;28;20266;-74
2023/12/14 07:24:34;;;;;;;8.73;7.83;;;;;;;6.62;63.20;99462.47;10461686;28;20251;-73
2023/12/14 07:29:53;;;;;;;10.77;8.17;;;;;;;5.52;64.89;99605.06;10474180;28;20231;-73
2023/12/14 07:35:01;;;;;;;11.87;7.80;;;;;;;6.04;64.10;99530.66;10461233;28;20294;-74
2023/12/14 07:40:09;;;;;;;9.37;7.70;;;;;;;6.65;62.84;99495.91;10473773;28;20242;-73
2023/12/14 07:45:18;;;;;;;10.20;8.63;;;;;;;6.95;61.86;99520.19;10467424;28;20865;-74
2023/12/14 07:50:26;;;;;;;13.30;10.77;;;;;;;7.07;61.24;99531.31;10476454;28;20364;-75
2023/12/14 07:55:35;;;;;;;12.87;10.20;;;;;;;6.09;63.89;99596.56;10463371;28;20231;-75
2023/12/14 08:00:50;;;;;;;11.40;9.37;;;;;;;6.52;62.71;99581.44;10478014;28;20231;-76
2023/12/14 08:06:04;;;;;;;10.63;8.50;;;;;;;5.76;64.06;99665.47;10467053;28;20227;-75
2023/12/14 08:11:17;;;;;;;9.53;7.83;;;;;;;6.46;63.03;99594.56;10467417;28;20687;-75
2023/12/14 08:16:25;;;;;;;10.27;9.17;;;;;;;7.29;61.70;99535.09;10457221;28;20756;-74
2023/12/14 08:21:40;;;;;;;9.97;7.80;;;;;;;7.41;61.75;99522.28;10472037;28;20272;-75
2023/12/14 08:26:51;;;;;;;10.27;8.53;;;;;;;6.84;61.46;99669.47;10469315;28;20237;-74
2023/12/14 08:31:59;;;;;;;11.37;9.40;;;;;;;6.63;63.49;99636.13;10506435;28;20543;-75
2023/12/14 08:37:07;;;;;;;10.27;9.07;;;;;;;6.82;62.94;99619.09;10507323;28;20410;-75
2023/12/14 08:42:15;;;;;;;10.50;8.57;;;;;;;6.82;62.81;99629.75;10489701;28;20283;-75
2023/12/14 08:47:23;;;;;;;10.10;8.17;;;;;;;6.99;62.57;99636.75;10514519;28;20311;-75
2023/12/14 08:52:31;;;;;;;12.30;8.60;;;;;;;6.66;62.45;99734.19;10488371;28;20234;-75
2023/12/14 08:57:39;;;;;;;10.00;7.90;;;;;;;6.56;63.29;99698.94;10514300;28;20249;-75
2023/12/14 09:02:55;;;;;;;12.93;9.70;;;;;;;6.69;63.84;99682.53;10501643;28;20721;-75
2023/12/14 09:08:04;;;;;;;10.20;8.37;;;;;;;6.57;63.87;99701.44;10490343;28;20808;-74
2023/12/14 09:13:12;;;;;;;12.27;9.37;;;;;;;6.57;65.09;99644.78;10489901;28;20605;-74
2023/12/14 09:18:22;;;;;;;10.87;8.23;;;;;;;6.59;63.03;99770.41;10493404;28;20741;-74
2023/12/14 09:23:30;;;;;;;9.67;7.87;;;;;;;7.40;62.11;99699.00;10466002;28;20247;-74
2023/12/14 09:28:39;;;;;;;13.73;9.27;;;;;;;7.06;62.21;99782.44;10490534;28;20366;-74
2023/12/14 09:33:47;;;;;;;12.27;8.53;;;;;;;6.85;64.20;99721.66;10463841;28;20226;-75
2023/12/14 09:38:55;;;;;;;10.13;7.77;;;;;;;6.63;63.51;99808.97;10484156;28;20739;-74
2023/12/14 09:44:06;;;;;;;10.93;8.17;;;;;;;7.26;63.42;99692.50;10462432;28;20228;-74
2023/12/14 09:49:16;;;;;;;11.30;8.90;;;;;;;7.67;62.10;99693.31;10503723;28;20230;-74
2023/12/14 09:54:28;;;;;;;12.03;8.57;;;;;;;7.11;62.24;99812.06;10468712;28;20592;-75
2023/12/14 09:59:37;;;;;;;10.87;8.23;;;;;;;7.36;61.18;99829.75;10478102;28;20255;-75
2023/12/14 10:04:52;;;;;;;12.57;9.57;;;;;;;7.15;62.68;99798.25;10479066;28;20239;-75
2023/12/14 10:10:19;;;;;;;12.53;8.20;;;;;;;7.62;60.85;99822.66;10507556;28;20237;-75
2023/12/14 10:15:27;;;;;;;10.00;7.67;;;;;;;7.39;61.97;99860.53;10470467;28;20243;-75
2023/12/14 10:20:37;;;;;;;10.33;8.30;;;;;;;7.51;61.43;99829.97;10470009;28;20623;-75
2023/12/14 10:25:46;;;;;;;11.53;7.33;;;;;;;7.18;62.22;99861.81;10450247;28;20568;-75
2023/12/14 10:30:54;;;;;;;9.87;7.60;;;;;;;7.42;61.83;99870.03;10487660;28;20227;-75
2023/12/14 10:36:05;;;;;;;9.80;7.67;;;;;;;7.36;61.66;99909.63;10467804;28;20704;-75
2023/12/14 10:41:13;;;;;;;12.57;8.27;;;;;;;7.43;62.08;99903.69;10482543;28;20239;-76
2023/12/14 10:46:25;;;;;;;11.30;8.40;;;;;;;6.76;64.19;99883.88;10485762;28;20320;-75
2023/12/14 10:51:37;;;;;;;10.77;8.67;;;;;;;6.97;63.46;99906.59;10519982;28;20673;-75
2023/12/14 10:56:48;;;;;;;9.50;7.93;;;;;;;7.89;62.07;99817.06;10475795;28;20252;-75
2023/12/14 11:06:47;;;;;;;11.18;8.50;;;;;;;6.03;66.99;99841.63;10214459;27;8253320;-75
2023/12/14 11:11:58;;;;;;;11.70;9.10;;;;;;;6.32;66.14;99804.13;10489989;28;20261;-75
2023/12/14 11:17:06;;;;;;;10.50;8.07;;;;;;;5.61;67.47;99884.72;10496348;28;20230;-75
2023/12/14 11:22:24;;;;;;;10.73;7.60;;;;;;;6.20;65.78;99851.38;10508289;28;20694;-75
2023/12/14 11:27:33;;;;;;;10.87;9.13;;;;;;;5.47;67.09;99921.34;10514955;28;20254;-75
2023/12/14 11:32:49;;;;;;;10.93;8.37;;;;;;;5.90;66.40;99873.06;10485576;28;20250;-74
2023/12/14 11:37:59;;;;;;;11.50;8.50;;;;;;;5.94;65.99;99877.06;10509104;28;20755;-74
2023/12/14 11:43:08;;;;;;;13.67;8.73;;;;;;;5.89;66.32;99853.59;10508229;28;20231;-75
2023/12/14 11:48:16;;;;;;;9.30;7.40;;;;;;;4.98;67.85;99928.69;10513059;28;20230;-75
2023/12/14 11:53:24;;;;;;;12.03;7.80;;;;;;;5.69;66.36;99885.63;10501605;28;20234;-75
2023/12/14 11:58:35;;;;;;;9.27;7.00;;;;;;;6.29;64.73;99868.22;10494727;28;20654;-74
2023/12/14 12:03:50;;;;;;;8.50;6.90;;;;;;;5.19;67.26;99901.09;10499623;28;20497;-75
2023/12/14 12:08:59;;;;;;;7.70;6.50;;;;;;;6.16;65.74;99862.47;10488661;28;20235;-73
2023/12/14 12:14:07;;;;;;;9.20;7.37;;;;;;;5.19;66.32;100007.22;10502045;28;20235;-74
2023/12/14 12:19:15;;;;;;;9.23;7.20;;;;;;;5.46;66.74;99922.31;10483706;28;20227;-74
2023/12/14 12:24:23;;;;;;;9.13;7.10;;;;;;;5.33;66.54;99975.75;10474780;28;20232;-74
2023/12/14 12:29:34;;;;;;;8.53;6.90;;;;;;;5.50;66.23;99947.59;10480837;28;20228;-74
2023/12/14 12:34:43;;;;;;;8.23;6.70;;;;;;;6.50;64.25;99904.25;10469527;28;20288;-75
2023/12/14 12:39:51;;;;;;;9.10;6.67;;;;;;;6.24;65.03;99921.00;10481814;28;20257;-74
2023/12/14 12:44:59;;;;;;;9.63;6.20;;;;;;;6.65;63.56;99932.00;10454510;28;20237;-74
2023/12/14 12:50:07;;;;;;;8.03;6.93;;;;;;;5.85;65.46;99961.97;10478525;28;20210;-75
2023/12/14 12:55:23;;;;;;;8.73;6.43;;;;;;;7.55;61.75;99910.38;10469436;28;20316;-74
2023/12/14 13:00:31;;;;;;;7.37;5.93;;;;;;;6.91;62.98;99947.97;10479753;28;20235;-75
2023/12/14 13:05:46;;;;;;;8.27;6.27;;;;;;;6.35;64.08;99973.13;10472517;28;20314;-75
2023/12/14 13:10:54;;;;;;;9.40;5.40;;;;;;;6.02;63.14;100052.47;10481082;28;20685;-74
2023/12/14 13:16:02;;;;;;;8.57;6.30;;;;;;;6.49;62.63;99999.16;10466999;28;20271;-74
2023/12/14 13:21:13;;;;;;;8.20;5.87;;;;;;;5.94;63.79;100016.03;10479994;28;20256;-75
2023/12/14 13:26:21;;;;;;;7.27;5.63;;;;;;;5.62;64.68;100021.75;10468517;28;20436;-74
2023/12/14 13:31:29;;;;;;;8.43;6.43;;;;;;;5.68;63.57;100091.06;10479573;28;20249;-74
2023/12/14 13:36:38;;;;;;;8.03;6.40;;;;;;;6.31;63.01;100020.41;10471859;28;20227;-75
2023/12/14 13:41:49;;;;;;;6.70;5.87;;;;;;;6.50;62.00;100069.94;10478684;28;20241;-73
2023/12/14 13:46:57;;;;;;;10.27;6.63;;;;;;;6.24;63.18;100049.44;10471764;28;20331;-74
2023/12/14 13:52:05;;;;;;;8.03;6.20;;;;;;;6.34;62.62;100061.81;10473349;28;20239;-74
2023/12/14 13:57:13;;;;;;;7.30;5.80;;;;;;;6.20;62.35;100103.00;10442991;28;20512;-73
2023/12/14 14:02:22;;;;;;;7.03;5.53;;;;;;;6.89;61.00;100021.78;10452212;28;20606;-75
2023/12/14 14:07:38;;;;;;;5.50;5.00;;;;;;;7.26;60.58;99986.13;10477793;28;20247;-74
2023/12/14 14:12:47;;;;;;;6.23;5.07;;;;;;;5.94;62.20;100140.03;10480413;28;20341;-76
2023/12/14 14:17:55;;;;;;;5.13;4.63;;;;;;;6.77;60.67;100066.41;10478724;28;20234;-76
2023/12/14 14:23:04;;;;;;;5.67;5.07;;;;;;;7.17;60.24;100027.81;10485480;28;20237;-74
2023/12/14 14:28:18;;;;;;;6.23;4.83;;;;;;;6.96;60.76;100077.88;10481177;28;20234;-73
2023/12/14 14:33:27;;;;;;;6.93;5.30;;;;;;;6.61;61.09;100128.22;10478073;28;20233;-74
2023/12/14 14:38:35;;;;;;;9.80;7.63;;;;;;;6.80;61.16;100115.81;10461953;28;20235;-73
2023/12/14 14:43:44;;;;;;;9.77;6.63;;;;;;;6.53;61.98;100186.66;10465396;28;20266;-73
2023/12/14 14:48:52;;;;;;;8.23;5.30;;;;;;;6.38;61.79;100188.09;10470819;28;20231;-74
2023/12/14 14:54:00;;;;;;;7.83;5.70;;;;;;;6.65;61.23;100157.16;10481826;28;20721;-73
2023/12/14 14:59:09;;;;;;;7.10;5.80;;;;;;;6.66;60.98;100196.09;10482396;28;20231;-74
2023/12/14 15:04:24;;;;;;;7.57;6.10;;;;;;;7.21;60.38;100140.13;10471802;28;20227;-78
2023/12/14 15:09:32;;;;;;;10.90;7.83;;;;;;;7.28;59.47;100226.38;10475744;28;20805;-72
2023/12/14 15:14:40;;;;;;;9.23;6.67;;;;;;;8.38;57.89;100143.34;10466033;28;20324;-72
2023/12/14 15:19:49;;;;;;;8.73;6.47;;;;;;;8.02;58.24;100212.84;10477252;28;20231;-69
2023/12/14 15:25:04;;;;;;;7.87;6.13;;;;;;;6.60;60.79;100312.72;10471059;28;20234;-71
2023/12/14 15:30:12;;;;;;;7.60;5.40;;;;;;;6.87;61.27;100215.31;10477400;28;20231;-72
2023/12/14 15:35:28;;;;;;;6.63;5.10;;;;;;;5.74;62.53;100327.78;10470419;28;20239;-72
2023/12/14 15:40:37;;;;;;;5.80;4.23;;;;;;;5.48;62.95;100334.44;10462275;28;20641;-71
2023/12/14 15:45:46;;;;;;;7.83;5.83;;;;;;;5.74;61.76;100351.69;10453001;28;20259;-71
2023/12/14 15:50:54;;;;;;;8.17;7.03;;;;;;;5.96;61.92;100324.00;10484070;28;20697;-72
2023/12/14 15:56:03;;;;;;;8.47;5.60;;;;;;;5.74;63.16;100298.59;10477992;28;20258;-71
2023/12/14 16:01:12;;;;;;;7.33;5.50;;;;;;;5.78;63.59;100298.16;10466333;28;20713;-73
2023/12/14 16:06:27;;;;;;;8.77;6.63;;;;;;;5.04;65.92;100386.16;10478220;28;20650;-72
2023/12/14 16:11:42;;;;;;;10.27;7.47;;;;;;;5.06;66.74;100358.50;10481504;28;20243;-71
2023/12/14 16:16:50;;;;;;;10.53;6.63;;;;;;;5.72;64.43;100335.06;10463326;28;20239;-72
2023/12/14 16:21:58;;;;;;;6.97;5.70;;;;;;;5.93;63.95;100326.97;10487603;28;20231;-73
2023/12/14 16:27:06;;;;;;;7.60;6.80;;;;;;;5.94;64.15;100324.19;10484042;28;20885;-74
2023/12/14 16:32:15;;;;;;;6.47;5.53;;;;;;;5.42;64.21;100400.50;10479778;28;20244;-73
2023/12/14 16:37:26;;;;;;;6.70;5.57;;;;;;;6.13;62.26;100355.22;10462769;28;20280;-72
2023/12/14 16:42:34;;;;;;;10.13;7.67;;;;;;;6.27;61.64;100369.03;10481343;28;20600;-72
2023/12/14 16:47:42;;;;;;;6.60;5.40;;;;;;;5.82;62.52;100397.00;10475898;28;20343;-72
2023/12/14 16:52:50;;;;;;;5.57;4.87;;;;;;;6.48;61.21;100323.66;10456937;28;20801;-72
2023/12/14 16:58:05;;;;;;;5.83;4.60;;;;;;;5.61;63.02;100435.13;10476068;28;20223;-77
2023/12/14 17:03:20;;;;;;;5.67;4.50;;;;;;;6.11;62.42;100365.16;10478682;28;20249;-75
2023/12/14 17:08:35;;;;;;;4.60;4.20;;;;;;;5.21;64.10;100477.56;10481422;28;20653;-74
2023/12/14 17:13:43;;;;;;;4.80;4.30;;;;;;;5.01;64.10;100519.03;10463419;28;20741;-74
2023/12/14 17:18:51;;;;;;;5.23;3.90;;;;;;;6.00;62.00;100394.50;10478903;28;20258;-73
2023/12/14 17:24:01;;;;;;;4.30;3.90;;;;;;;5.36;62.49;100481.53;10482748;28;20228;-69
2023/12/14 17:29:10;;;;;;;4.90;4.40;;;;;;;5.26;63.05;100483.31;10464097;28;20353;-73
2023/12/14 17:34:20;;;;;;;4.23;3.83;;;;;;;5.42;62.75;100499.59;10477674;28;20313;-70
2023/12/14 17:39:28;;;;;;;4.30;3.93;;;;;;;5.44;62.33;100526.84;10477126;28;20239;-70
2023/12/14 17:44:36;;;;;;;4.87;4.37;;;;;;;5.13;63.33;100545.41;10477737;28;20310;-71
2023/12/14 17:49:44;;;;;;;5.90;3.40;;;;;;;5.24;63.31;100525.06;10479669;28;20230;-70
2023/12/14 17:54:52;;;;;;;6.07;4.40;;;;;;;4.96;64.13;100500.88;10455259;28;20232;-70
2023/12/14 18:00:07;;;;;;;4.23;3.83;;;;;;;3.97;64.99;100625.47;10467765;28;20217;-71
2023/12/14 18:05:29;;;;;;;5.00;4.10;;;;;;;4.66;64.22;100491.88;10476037;28;20648;-71
2023/12/14 18:10:41;;;;;;;4.73;4.23;;;;;;;5.30;62.39;100498.84;10474655;28;20996;-71
2023/12/14 18:15:50;;;;;;;4.47;3.73;;;;;;;4.94;62.58;100559.34;10468411;28;20245;-70
2023/12/14 18:20:59;;;;;;;5.60;4.93;;;;;;;5.34;61.82;100523.28;10483681;28;20772;-70
2023/12/14 18:26:11;;;;;;;5.33;4.63;;;;;;;5.42;61.75;100496.94;10430590;28;20292;-70
2023/12/14 18:31:19;;;;;;;6.50;5.53;;;;;;;5.20;61.14;100620.00;10462068;28;20673;-70
2023/12/14 18:36:27;;;;;;;6.17;5.00;;;;;;;5.27;61.32;100570.75;10469892;28;20320;-70
2023/12/14 18:41:35;;;;;;;8.60;6.70;;;;;;;4.75;62.06;100676.72;10448774;28;20368;-70
2023/12/14 18:46:43;;;;;;;5.93;5.33;;;;;;;5.04;61.81;100617.78;10451052;28;20260;-69
2023/12/14 18:51:51;;;;;;;5.43;4.83;;;;;;;4.26;62.81;100709.78;10458922;28;20238;-68
2023/12/14 18:57:00;;;;;;;5.53;4.20;;;;;;;4.10;63.10;100706.63;10477270;28;20233;-70
2023/12/14 19:02:07;;;;;;;4.93;4.07;;;;;;;3.85;63.28;100716.47;10461496;28;20873;-68
2023/12/14 19:07:22;;;;;;;5.20;4.43;;;;;;;4.01;62.68;100714.31;10469879;28;20250;-69
2023/12/14 19:12:30;;;;;;;5.60;4.10;;;;;;;4.67;62.27;100596.94;10460328;28;20712;-70
2023/12/14 19:17:39;;;;;;;4.77;4.27;;;;;;;4.22;62.85;100652.66;10475978;28;20596;-70
2023/12/14 19:22:48;;;;;;;5.53;3.77;;;;;;;4.94;61.08;100603.59;10475578;28;20234;-69
2023/12/14 19:27:56;;;;;;;3.60;3.30;;;;;;;4.57;61.72;100631.31;10481004;28;20288;-75
2023/12/14 19:33:03;;;;;;;4.17;3.70;;;;;;;4.32;62.12;100661.63;10462928;28;20233;-76
2023/12/14 19:38:18;;;;;;;4.83;3.90;;;;;;;4.30;61.24;100697.94;10464786;28;20778;-74
2023/12/14 19:43:30;;;;;;;3.57;3.27;;;;;;;3.70;62.29;100799.69;10478907;28;20230;-75
2023/12/14 19:48:44;;;;;;;3.97;3.67;;;;;;;3.71;62.37;100761.69;10481482;28;20640;-75
2023/12/14 19:53:53;;;;;;;5.00;3.60;;;;;;;3.48;63.11;100774.84;10460965;28;20231;-74
2023/12/14 19:59:01;;;;;;;3.90;3.50;;;;;;;3.17;63.32;100815.91;10454927;28;20225;-74
2023/12/14 20:04:15;;;;;;;4.30;3.60;;;;;;;4.45;61.01;100671.25;10458155;28;20240;-72
2023/12/14 20:09:30;;;;;;;4.67;3.80;;;;;;;4.65;60.87;100651.09;10482695;28;20297;-74
2023/12/14 20:14:55;;;;;;;4.07;3.67;;;;;;;3.04;63.40;100903.22;10461694;28;20225;-73
2023/12/14 20:20:08;;;;;;;4.67;4.10;;;;;;;3.57;62.88;100790.03;10481036;28;20227;-74
2023/12/14 20:25:17;;;;;;;3.70;3.40;;;;;;;4.76;60.36;100694.31;10480097;28;20246;-73
2023/12/14 20:30:25;;;;;;;5.90;4.27;;;;;;;4.67;60.62;100724.22;10483532;28;20289;-77
2023/12/14 20:35:32;;;;;;;4.60;3.50;;;;;;;3.89;61.15;100889.22;10465205;28;20249;-74
2023/12/14 20:40:47;;;;;;;4.87;4.37;;;;;;;4.60;60.46;100780.53;10485072;28;20231;-75
2023/12/14 20:45:57;;;;;;;4.67;4.17;;;;;;;4.61;60.47;100788.34;10478813;28;20256;-74
2023/12/14 20:51:06;;;;;;;5.23;3.93;;;;;;;5.03;59.08;100804.47;10473485;28;20227;-74
2023/12/14 20:56:17;;;;;;;6.17;4.53;;;;;;;4.28;61.20;100865.97;10479498;28;20678;-75
2023/12/14 21:01:30;;;;;;;4.83;4.07;;;;;;;4.25;60.35;100895.34;10479215;28;20239;-73
2023/12/14 21:06:37;;;;;;;5.03;4.20;;;;;;;4.23;60.88;100842.47;10473743;28;20229;-75
2023/12/14 21:11:46;;;;;;;4.37;3.83;;;;;;;4.29;59.54;100887.06;10479484;28;20231;-76
2023/12/14 21:16:53;;;;;;;4.80;3.83;;;;;;;3.87;60.42;100915.81;10462492;28;20239;-79
2023/12/14 21:22:08;;;;;;;5.53;4.10;;;;;;;3.92;60.42;100895.13;10478236;28;20239;-77
2023/12/14 21:32:45;;;;;;;4.60;4.00;;;;;;;3.75;60.51;100937.88;10472725;28;20258;-75
2023/12/14 21:38:00;;;;;;;6.20;4.33;;;;;;;2.65;61.92;101042.44;10476429;28;20281;-75
2023/12/14 21:43:16;;;;;;;4.90;4.40;;;;;;;3.47;60.27;100940.69;10447757;28;20726;-74
2023/12/14 21:48:25;;;;;;;5.17;4.67;;;;;;;3.89;59.33;100881.28;10476684;28;20310;-73
2023/12/14 21:53:33;;;;;;;6.00;4.70;;;;;;;3.96;59.34;100878.03;10472297;28;20277;-75
2023/12/14 21:58:41;;;;;;;5.60;5.10;;;;;;;3.92;59.56;100870.44;10471719;28;20280;-75
2023/12/14 22:04:03;;;;;;;4.73;4.33;;;;;;;4.33;57.96;100870.00;10458988;28;21010;-75
2023/12/14 22:09:17;;;;;;;6.10;4.40;;;;;;;3.34;59.59;101023.72;10460385;28;20227;-73
2023/12/14 22:14:25;;;;;;;5.43;4.63;;;;;;;2.82;60.25;101005.16;10470988;28;20525;-74
2023/12/14 22:19:37;;;;;;;4.60;3.97;;;;;;;2.56;60.92;101019.28;10472221;28;20232;-74
2023/12/14 22:24:45;;;;;;;6.53;4.43;;;;;;;2.77;60.29;100993.19;10459037;28;20239;-73
2023/12/14 22:29:53;;;;;;;7.30;4.60;;;;;;;2.91;60.47;100980.75;10475438;28;20686;-74
2023/12/14 22:35:01;;;;;;;5.50;4.80;;;;;;;3.38;59.41;100928.16;10476532;28;20627;-74
2023/12/14 22:40:09;;;;;;;5.90;4.87;;;;;;;3.47;59.55;100964.53;10476700;28;20254;-73
2023/12/14 22:45:18;;;;;;;5.47;4.97;;;;;;;3.99;58.94;100938.72;10474063;28;20239;-74
2023/12/14 22:50:26;;;;;;;5.53;4.93;;;;;;;3.35;60.07;101006.91;10475401;28;20231;-73
2023/12/14 22:55:34;;;;;;;5.63;5.03;;;;;;;3.52;59.38;100998.59;10474408;28;20306;-73
2023/12/14 23:00:42;;;;;;;8.03;4.93;;;;;;;3.40;59.71;101010.91;10475574;28;20293;-73
2023/12/14 23:05:56;;;;;;;7.40;5.20;;;;;;;3.51;59.90;101006.66;10465601;28;20735;-73
2023/12/14 23:11:05;;;;;;;7.53;6.03;;;;;;;3.42;60.20;101026.69;10481447;28;20518;-72
2023/12/14 23:16:16;;;;;;;5.70;5.03;;;;;;;3.44;59.46;101075.88;10468784;28;20239;-72
2023/12/14 23:21:24;;;;;;;6.30;4.70;;;;;;;4.25;58.17;100996.06;10473640;28;20222;-72
2023/12/14 23:26:32;;;;;;;6.00;5.37;;;;;;;3.24;60.22;101122.25;10456547;28;20301;-72
2023/12/14 23:31:40;;;;;;;8.03;5.50;;;;;;;2.90;60.74;101172.03;10476122;28;20481;-71
2023/12/14 23:36:48;;;;;;;7.73;5.97;;;;;;;3.85;59.50;101039.53;10472062;28;20231;-72
2023/12/14 23:41:59;;;;;;;6.97;6.00;;;;;;;3.31;60.78;101138.56;10475012;28;20263;-71
2023/12/14 23:47:08;;;;;;;7.90;6.10;;;;;;;3.58;60.24;101090.84;10477400;28;20231;-72
2023/12/14 23:52:17;;;;;;;6.97;5.37;;;;;;;3.27;59.93;101169.66;10476191;28;20615;-72
2023/12/14 23:57:25;;;;;;;7.27;5.50;;;;;;;3.21;60.63;101153.34;10473750;28;20322;-71
